createdAt,value
2018-11-26T00:00:35.742Z,71.90
2018-11-26T00:03:09.262Z,71.47
2018-11-26T00:05:38.745Z,83.97
2018-11-26T00:08:09.276Z,69.13
2018-11-26T00:10:48.664Z,71.57
2018-11-26T00:13:17.990Z,68.47
2018-11-26T00:15:46.368Z,69.40
2018-11-26T00:18:14.691Z,79.90
2018-11-26T00:20:42.929Z,76.50
2018-11-26T00:23:11.160Z,67.03
2018-11-26T00:25:39.979Z,82.23
2018-11-26T00:28:08.704Z,91.87
2018-11-26T00:30:37.944Z,76.93
2018-11-26T00:33:07.662Z,67.53
2018-11-26T00:35:36.050Z,78.17
2018-11-26T00:38:04.247Z,64.30
2018-11-26T00:40:32.709Z,75.80
2018-11-26T00:43:02.519Z,82.30
2018-11-26T00:45:31.512Z,69.50
2018-11-26T00:47:59.861Z,71.73
2018-11-26T00:50:28.563Z,73.83
2018-11-26T00:52:56.593Z,75.50
2018-11-26T00:55:25.284Z,77.17
2018-11-26T00:57:55.006Z,74.27
2018-11-26T01:00:24.871Z,76.63
2018-11-26T01:02:53.797Z,72.50
2018-11-26T01:05:34.563Z,89.30
2018-11-26T01:08:03.393Z,82.70
2018-11-26T01:10:32.063Z,74.10
2018-11-26T01:13:01.757Z,72.70
2018-11-26T01:15:30.841Z,79.87
2018-11-26T01:17:59.863Z,72.60
2018-11-26T01:20:28.457Z,76.47
2018-11-26T01:22:57.373Z,78.73
2018-11-26T01:25:26.886Z,82.50
2018-11-26T01:27:55.054Z,78.30
2018-11-26T01:30:23.154Z,81.20
2018-11-26T01:32:51.287Z,85.67
2018-11-26T01:35:21.290Z,69.90
2018-11-26T01:37:49.750Z,83.93
2018-11-26T01:40:20.533Z,87.83
2018-11-26T01:42:48.938Z,79.17
2018-11-26T01:45:17.232Z,79.63
2018-11-26T01:47:47.157Z,72.47
2018-11-26T01:50:15.981Z,71.07
2018-11-26T01:52:44.567Z,82.60
2018-11-26T01:55:13.997Z,78.33
2018-11-26T01:57:42.339Z,75.70
2018-11-26T02:00:18.350Z,91.97
2018-11-26T02:02:47.313Z,77.90
2018-11-26T02:05:16.438Z,78.00
2018-11-26T02:07:45.378Z,83.90
2018-11-26T02:10:16.152Z,88.93
2018-11-26T02:12:44.214Z,81.83
2018-11-26T02:15:33.377Z,77.77
2018-11-26T02:18:03.926Z,88.20
2018-11-26T02:20:32.213Z,77.47
2018-11-26T02:23:01.015Z,69.67
2018-11-26T02:25:29.906Z,79.50
2018-11-26T02:27:58.090Z,84.77
2018-11-26T02:30:26.691Z,80.07
2018-11-26T02:32:55.502Z,98.63
2018-11-26T02:35:23.795Z,87.67
2018-11-26T02:37:53.419Z,88.00
2018-11-26T02:40:29.644Z,94.73
2018-11-26T02:42:58.694Z,83.30
2018-11-26T02:45:29.271Z,73.70
2018-11-26T02:47:57.645Z,91.80
2018-11-26T02:50:27.729Z,79.10
2018-11-26T02:52:57.808Z,88.37
2018-11-26T02:55:26.666Z,84.67
2018-11-26T02:57:55.637Z,87.17
2018-11-26T03:00:24.720Z,85.70
2018-11-26T03:02:54.525Z,75.27
2018-11-26T03:05:27.168Z,83.63
2018-11-26T03:07:55.378Z,69.47
2018-11-26T03:10:23.663Z,84.80
2018-11-26T03:12:51.945Z,77.33
2018-11-26T03:15:21.080Z,89.13
2018-11-26T03:17:50.809Z,84.30
2018-11-26T03:20:19.855Z,85.57
2018-11-26T03:22:48.651Z,83.43
2018-11-26T03:25:17.098Z,80.23
2018-11-26T03:27:45.774Z,79.73
2018-11-26T03:30:18.138Z,79.57
2018-11-26T03:32:46.952Z,86.43
2018-11-26T03:35:15.186Z,76.17
2018-11-26T03:37:43.501Z,77.67
2018-11-26T03:40:13.289Z,82.10
2018-11-26T03:42:42.909Z,77.77
2018-11-26T03:45:14.947Z,75.97
2018-11-26T03:47:43.922Z,80.97
2018-11-26T03:50:12.954Z,87.40
2018-11-26T03:52:43.713Z,68.73
2018-11-26T03:55:12.248Z,85.03
2018-11-26T03:57:40.604Z,82.13
2018-11-26T04:00:11.700Z,79.77
2018-11-26T04:02:39.926Z,84.20
2018-11-26T04:05:09.525Z,81.00
2018-11-26T04:07:37.652Z,71.27
2018-11-26T04:10:07.817Z,66.67
2018-11-26T04:12:36.166Z,76.40
2018-11-26T04:15:04.619Z,66.33
2018-11-26T04:17:33.463Z,68.90
2018-11-26T04:20:02.140Z,71.30
2018-11-26T04:22:30.655Z,71.27
2018-11-26T04:24:58.864Z,77.63
2018-11-26T04:27:27.889Z,72.90
2018-11-26T04:29:57.347Z,63.13
2018-11-26T04:32:26.901Z,66.47
2018-11-26T04:34:55.204Z,79.53
2018-11-26T04:37:24.522Z,57.77
2018-11-26T04:39:53.169Z,55.53
2018-11-26T04:42:21.250Z,61.80
2018-11-26T04:44:49.791Z,62.93
2018-11-26T04:47:18.103Z,61.73
2018-11-26T04:49:47.088Z,62.63
2018-11-26T04:52:15.878Z,63.27
2018-11-26T04:54:45.150Z,61.87
2018-11-26T04:57:13.337Z,58.33
2018-11-26T04:59:41.362Z,61.30
2018-11-26T05:02:09.773Z,54.47
2018-11-26T05:04:37.916Z,51.57
2018-11-26T05:07:06.175Z,61.93
2018-11-26T05:09:34.833Z,61.17
2018-11-26T05:12:03.061Z,58.33
2018-11-26T05:14:32.073Z,62.67
2018-11-26T05:17:01.468Z,60.97
2018-11-26T05:19:30.347Z,67.43
2018-11-26T05:21:58.668Z,56.97
2018-11-26T05:24:26.776Z,58.60
2018-11-26T05:26:55.211Z,61.23
2018-11-26T05:29:23.931Z,60.93
2018-11-26T05:31:53.899Z,67.20
2018-11-26T05:34:22.983Z,61.43
2018-11-26T05:36:53.728Z,62.20
2018-11-26T05:39:21.829Z,62.93
2018-11-26T05:41:51.903Z,62.93
2018-11-26T05:44:21.883Z,52.30
2018-11-26T05:46:50.764Z,64.00
2018-11-26T05:49:19.578Z,63.37
2018-11-26T05:51:49.052Z,69.90
2018-11-26T05:54:17.709Z,66.70
2018-11-26T05:56:46.104Z,60.57
2018-11-26T05:59:14.500Z,58.97
2018-11-26T06:01:42.583Z,60.10
2018-11-26T06:04:11.114Z,65.33
2018-11-26T06:06:39.411Z,68.50
2018-11-26T06:09:09.440Z,55.33
2018-11-26T06:11:39.066Z,61.03
2018-11-26T06:14:07.400Z,53.97
2018-11-26T06:16:36.785Z,55.50
2018-11-26T06:19:05.282Z,57.47
2018-11-26T06:21:35.119Z,51.80
2018-11-26T06:24:04.157Z,56.40
2018-11-26T06:26:33.322Z,52.80
2018-11-26T06:29:02.180Z,57.50
2018-11-26T06:31:31.286Z,54.67
2018-11-26T06:34:00.208Z,56.33
2018-11-26T06:36:28.864Z,49.20
2018-11-26T06:38:57.309Z,51.73
2018-11-26T06:41:26.251Z,54.47
2018-11-26T06:43:56.474Z,51.77
2018-11-26T06:46:26.062Z,54.87
2018-11-26T06:48:54.875Z,49.10
2018-11-26T06:51:23.792Z,51.17
2018-11-26T06:53:51.927Z,55.77
2018-11-26T06:56:20.660Z,49.07
2018-11-26T06:58:49.462Z,51.83
2018-11-26T07:01:17.912Z,51.67
2018-11-26T07:03:46.141Z,51.27
2018-11-26T07:06:16.445Z,49.13
2018-11-26T07:08:44.669Z,50.83
2018-11-26T07:11:14.848Z,47.80
2018-11-26T07:13:44.509Z,47.70
2018-11-26T07:16:13.796Z,51.53
2018-11-26T07:18:41.999Z,42.37
2018-11-26T07:21:10.338Z,46.33
2018-11-26T07:23:38.675Z,51.10
2018-11-26T07:26:07.126Z,47.50
2018-11-26T07:28:35.675Z,54.90
2018-11-26T07:31:05.766Z,57.23
2018-11-26T07:33:34.693Z,57.60
2018-11-26T07:36:03.098Z,48.77
2018-11-26T07:38:32.860Z,49.37
2018-11-26T07:41:02.894Z,44.87
2018-11-26T07:43:31.357Z,39.03
2018-11-26T07:46:00.193Z,42.87
2018-11-26T07:48:29.061Z,46.90
2018-11-26T07:50:57.188Z,42.63
2018-11-26T07:53:26.122Z,43.90
2018-11-26T07:55:55.306Z,45.43
2018-11-26T07:58:24.601Z,39.60
2018-11-26T08:00:55.269Z,44.60
2018-11-26T08:03:24.058Z,42.37
2018-11-26T08:05:53.000Z,39.17
2018-11-26T08:08:22.332Z,42.20
2018-11-26T08:10:51.762Z,41.00
2018-11-26T08:13:19.950Z,38.83
2018-11-26T08:15:49.128Z,36.67
2018-11-26T08:18:18.415Z,35.50
2018-11-26T08:20:46.912Z,36.77
2018-11-26T08:23:15.287Z,40.90
2018-11-26T08:25:45.148Z,41.30
2018-11-26T08:28:14.087Z,36.17
2018-11-26T08:30:55.591Z,49.23
2018-11-26T08:33:25.663Z,44.47
2018-11-26T08:35:59.942Z,37.23
2018-11-26T08:38:33.867Z,35.83
2018-11-26T08:41:13.467Z,35.40
2018-11-26T08:43:43.804Z,35.20
2018-11-26T08:46:18.723Z,34.53
2018-11-26T08:48:52.280Z,37.00
2018-11-26T08:51:21.388Z,41.60
2018-11-26T08:53:50.577Z,36.47
2018-11-26T08:56:20.014Z,47.70
2018-11-26T08:58:48.186Z,39.97
2018-11-26T09:01:18.732Z,48.30
2018-11-26T09:03:55.417Z,39.70
2018-11-26T09:06:23.801Z,45.70
2018-11-26T09:08:52.867Z,43.80
2018-11-26T09:11:21.976Z,40.17
2018-11-26T09:13:51.167Z,43.47
2018-11-26T09:16:21.199Z,46.00
2018-11-26T09:18:51.009Z,35.33
2018-11-26T09:21:20.735Z,41.60
2018-11-26T09:23:50.558Z,38.20
2018-11-26T09:26:19.390Z,37.77
2018-11-26T09:28:47.877Z,39.53
2018-11-26T09:31:17.980Z,35.97
2018-11-26T09:33:47.007Z,35.97
2018-11-26T09:36:16.203Z,40.57
2018-11-26T09:38:45.630Z,40.17
2018-11-26T09:41:15.623Z,49.27
2018-11-26T09:43:45.053Z,42.57
2018-11-26T09:46:19.677Z,38.77
2018-11-26T09:48:51.938Z,37.57
2018-11-26T09:51:24.178Z,37.27
2018-11-26T09:53:53.057Z,38.87
2018-11-26T09:56:21.490Z,35.73
2018-11-26T09:58:52.892Z,37.37
2018-11-26T10:01:24.217Z,35.50
2018-11-26T10:03:55.502Z,36.30
2018-11-26T10:06:25.666Z,35.60
2018-11-26T10:08:55.351Z,35.50
2018-11-26T10:11:28.201Z,45.53
2018-11-26T10:14:00.674Z,34.60
2018-11-26T10:16:29.895Z,31.83
2018-11-26T10:18:59.828Z,37.03
2018-11-26T10:21:35.032Z,33.60
2018-11-26T10:24:06.489Z,36.70
2018-11-26T10:26:37.094Z,36.40
2018-11-26T10:29:07.406Z,31.80
2018-11-26T10:31:36.445Z,33.80
2018-11-26T10:34:05.610Z,31.20
2018-11-26T10:36:35.242Z,32.43
2018-11-26T10:39:07.076Z,30.53
2018-11-26T10:41:36.709Z,31.70
2018-11-26T10:44:05.192Z,30.47
2018-11-26T10:46:35.899Z,32.27
2018-11-26T10:49:07.653Z,31.93
2018-11-26T10:51:36.818Z,26.70
2018-11-26T10:54:07.108Z,31.57
2018-11-26T10:56:37.939Z,29.23
2018-11-26T10:59:07.412Z,34.80
2018-11-26T11:01:37.952Z,33.00
2018-11-26T11:04:07.276Z,27.30
2018-11-26T11:06:38.216Z,31.83
2018-11-26T11:09:14.676Z,31.57
2018-11-26T11:11:43.769Z,30.73
2018-11-26T11:14:18.076Z,32.87
2018-11-26T11:16:48.009Z,36.57
2018-11-26T11:19:17.449Z,36.73
2018-11-26T11:21:46.995Z,41.60
2018-11-26T11:24:18.451Z,43.03
2018-11-26T11:26:48.368Z,39.97
2018-11-26T11:29:18.789Z,52.30
2018-11-26T11:31:48.196Z,44.63
2018-11-26T11:34:19.082Z,42.60
2018-11-26T11:36:47.520Z,46.13
2018-11-26T11:39:17.942Z,33.87
2018-11-26T11:41:48.027Z,40.40
2018-11-26T11:44:21.644Z,41.47
2018-11-26T11:46:52.820Z,37.03
2018-11-26T11:49:24.466Z,40.13
2018-11-26T11:51:54.375Z,49.83
2018-11-26T11:54:27.427Z,52.60
2018-11-26T11:56:58.901Z,47.00
2018-11-26T11:59:29.562Z,49.83
2018-11-26T12:01:58.455Z,52.47
2018-11-26T12:04:27.993Z,51.30
2018-11-26T12:06:58.047Z,46.77
2018-11-26T12:09:27.247Z,49.10
2018-11-26T12:11:58.319Z,42.87
2018-11-26T12:14:28.465Z,44.70
2018-11-26T12:16:57.227Z,53.60
2018-11-26T12:19:27.309Z,46.77
2018-11-26T12:21:58.539Z,49.60
2018-11-26T12:24:27.647Z,36.83
2018-11-26T12:27:01.341Z,39.20
2018-11-26T12:29:33.480Z,41.03
2018-11-26T12:32:03.509Z,40.50
2018-11-26T12:34:35.372Z,39.60
2018-11-26T12:37:04.842Z,50.17
2018-11-26T12:39:34.723Z,45.87
2018-11-26T12:42:05.066Z,42.83
2018-11-26T12:44:52.028Z,42.93
2018-11-26T12:47:22.520Z,40.17
2018-11-26T12:49:51.538Z,54.00
2018-11-26T12:52:22.313Z,52.07
2018-11-26T12:54:51.093Z,51.23
2018-11-26T12:57:22.504Z,55.47
2018-11-26T12:59:56.207Z,52.23
2018-11-26T13:02:25.805Z,52.53
2018-11-26T13:04:57.763Z,47.23
2018-11-26T13:07:27.847Z,61.07
2018-11-26T13:09:56.249Z,48.43
2018-11-26T13:15:01.430Z,51.77
2018-11-26T13:17:30.761Z,50.97
2018-11-26T13:20:01.263Z,44.90
2018-11-26T13:22:37.611Z,44.90
2018-11-26T13:25:09.269Z,54.00
2018-11-26T13:27:38.581Z,45.57
2018-11-26T13:30:18.098Z,49.83
2018-11-26T13:32:47.651Z,47.63
2018-11-26T13:35:18.959Z,52.93
2018-11-26T13:37:47.709Z,54.17
2018-11-26T13:40:18.970Z,48.47
2018-11-26T13:42:48.539Z,54.30
2018-11-26T13:45:24.638Z,59.40
2018-11-26T13:47:54.548Z,51.50
2018-11-26T13:50:25.239Z,48.70
2018-11-26T13:52:59.016Z,47.00
2018-11-26T13:55:29.685Z,49.47
2018-11-26T13:58:00.815Z,49.20
2018-11-26T14:00:30.089Z,59.83
2018-11-26T14:03:02.117Z,49.53
2018-11-26T14:05:36.622Z,46.60
2018-11-26T14:08:06.683Z,48.03
2018-11-26T14:10:38.802Z,51.67
2018-11-26T14:13:15.860Z,54.63
2018-11-26T14:15:47.781Z,41.00
2018-11-26T14:18:16.039Z,41.60
2018-11-26T14:20:45.671Z,43.90
2018-11-26T14:23:15.508Z,42.60
2018-11-26T14:25:46.693Z,54.23
2018-11-26T14:28:15.632Z,51.30
2018-11-26T14:30:46.184Z,47.13
2018-11-26T14:33:14.942Z,45.43
2018-11-26T14:35:44.656Z,43.27
2018-11-26T14:38:14.986Z,50.77
2018-11-26T14:40:50.470Z,55.80
2018-11-26T14:43:19.902Z,53.33
2018-11-26T14:45:49.862Z,49.93
2018-11-26T14:48:21.134Z,48.17
2018-11-26T14:50:51.046Z,47.10
2018-11-26T14:53:20.850Z,55.90
2018-11-26T14:55:50.206Z,50.60
2018-11-26T14:58:18.384Z,56.57
2018-11-26T15:00:47.818Z,49.77
2018-11-26T15:03:17.299Z,53.50
2018-11-26T15:05:46.208Z,57.30
2018-11-26T15:08:17.381Z,55.07
2018-11-26T15:10:46.508Z,53.20
2018-11-26T15:13:15.927Z,63.77
2018-11-26T15:15:44.601Z,55.03
2018-11-26T15:18:14.592Z,68.33
2018-11-26T15:20:43.622Z,58.80
2018-11-26T15:23:13.175Z,57.90
2018-11-26T15:25:43.974Z,57.50
2018-11-26T15:28:13.845Z,64.83
2018-11-26T15:30:45.097Z,61.20
2018-11-26T15:33:15.825Z,60.10
2018-11-26T15:35:44.770Z,67.53
2018-11-26T15:38:13.643Z,62.60
2018-11-26T15:40:44.407Z,63.80
2018-11-26T15:43:13.041Z,70.60
2018-11-26T15:45:43.058Z,57.43
2018-11-26T15:48:13.432Z,74.50
2018-11-26T15:50:43.275Z,65.87
2018-11-26T15:53:13.814Z,76.13
2018-11-26T15:55:44.492Z,64.60
2018-11-26T15:58:17.042Z,74.37
2018-11-26T16:00:46.635Z,74.83
2018-11-26T16:03:17.409Z,73.13
2018-11-26T16:05:46.732Z,68.67
2018-11-26T16:08:18.050Z,70.10
2018-11-26T16:10:48.276Z,70.83
2018-11-26T16:13:17.630Z,73.67
2018-11-26T16:15:45.948Z,72.10
2018-11-26T16:18:21.499Z,70.87
2018-11-26T16:20:50.648Z,70.00
2018-11-26T16:23:21.024Z,57.30
2018-11-26T16:25:50.395Z,66.23
2018-11-26T16:28:23.403Z,70.23
2018-11-26T16:30:54.450Z,69.77
2018-11-26T16:33:22.774Z,86.07
2018-11-26T16:35:53.118Z,80.73
2018-11-26T16:38:28.717Z,85.67
2018-11-26T16:40:59.019Z,81.10
2018-11-26T16:43:28.210Z,87.87
2018-11-26T16:45:59.670Z,85.53
2018-11-26T16:48:29.629Z,78.23
2018-11-26T16:50:59.657Z,83.87
2018-11-26T16:53:31.565Z,73.87
2018-11-26T16:56:01.361Z,79.50
2018-11-26T16:58:33.779Z,79.70
2018-11-26T17:01:03.417Z,82.57
2018-11-26T17:03:33.231Z,73.67
2018-11-26T17:06:06.198Z,75.93
2018-11-26T17:08:42.321Z,78.17
2018-11-26T17:11:12.246Z,76.37
2018-11-26T17:13:43.509Z,74.00
2018-11-26T17:16:21.959Z,72.23
2018-11-26T17:18:58.988Z,63.37
2018-11-26T17:21:29.909Z,65.20
2018-11-26T17:24:05.152Z,71.03
2018-11-26T17:26:41.715Z,58.30
2018-11-26T17:29:12.159Z,65.57
2018-11-26T17:34:19.787Z,69.37
2018-11-26T17:36:50.317Z,56.67
2018-11-26T17:39:21.818Z,64.13
2018-11-26T17:41:53.479Z,68.90
2018-11-26T17:44:24.819Z,65.70
2018-11-26T17:47:00.919Z,65.90
2018-11-26T17:49:35.362Z,60.50
2018-11-26T17:52:06.778Z,58.80
2018-11-26T17:54:36.155Z,61.23
2018-11-26T17:57:06.529Z,57.40
2018-11-26T17:59:36.008Z,57.60
2018-11-26T18:02:08.986Z,55.83
2018-11-26T18:04:39.262Z,64.37
2018-11-26T18:07:10.021Z,53.97
2018-11-26T18:09:42.639Z,58.33
2018-11-26T18:12:13.048Z,51.23
2018-11-26T18:14:44.292Z,54.00
2018-11-26T18:17:16.368Z,52.80
2018-11-26T18:19:48.548Z,50.40
2018-11-26T18:22:23.287Z,58.57
2018-11-26T18:24:54.300Z,55.07
2018-11-26T18:27:25.862Z,56.53
2018-11-26T18:29:57.007Z,54.33
2018-11-26T18:35:20.276Z,57.30
2018-11-26T18:37:52.750Z,51.10
2018-11-26T18:40:27.272Z,41.30
2018-11-26T18:43:03.737Z,55.30
2018-11-26T18:45:35.401Z,49.93
2018-11-26T18:48:04.589Z,48.80
2018-11-26T18:50:36.077Z,54.43
2018-11-26T18:53:07.191Z,59.47
2018-11-26T18:55:39.811Z,48.77
2018-11-26T18:58:10.468Z,47.73
2018-11-26T19:00:51.327Z,53.10
2018-11-26T19:03:29.266Z,47.90
2018-11-26T19:05:59.895Z,46.43
2018-11-26T19:08:31.819Z,52.10
2018-11-26T19:11:10.718Z,52.53
2018-11-26T19:13:51.242Z,48.57
2018-11-26T19:16:23.833Z,53.70
2018-11-26T19:18:54.452Z,47.30
2018-11-26T19:21:24.199Z,53.10
2018-11-26T19:23:59.823Z,50.53
2018-11-26T19:26:38.410Z,50.77
2018-11-26T19:29:16.211Z,55.63
2018-11-26T19:31:55.930Z,57.00
2018-11-26T19:34:22.185Z,45.30
2018-11-26T19:36:54.998Z,56.00
2018-11-26T19:39:35.563Z,52.37
2018-11-26T19:42:06.061Z,53.20
2018-11-26T19:44:37.650Z,53.53
2018-11-26T19:47:11.220Z,56.70
2018-11-26T19:49:47.134Z,64.10
2018-11-26T19:52:15.320Z,56.23
2018-11-26T19:54:44.187Z,54.97
2018-11-26T19:57:15.194Z,61.73
2018-11-26T19:59:47.228Z,61.63
2018-11-26T20:02:29.547Z,56.70
2018-11-26T20:05:07.060Z,64.13
2018-11-26T20:07:36.235Z,68.80
2018-11-26T20:10:12.723Z,63.27
2018-11-26T20:12:51.043Z,68.33
2018-11-26T20:15:37.741Z,64.90
2018-11-26T20:18:07.538Z,71.63
2018-11-26T20:20:46.055Z,75.57
2018-11-26T20:23:17.095Z,81.17
2018-11-26T20:25:55.121Z,75.07
2018-11-26T20:31:15.695Z,76.67
2018-11-26T20:33:45.974Z,77.13
2018-11-26T20:36:17.767Z,75.83
2018-11-26T20:38:54.185Z,81.27
2018-11-26T20:41:32.286Z,73.77
2018-11-26T20:44:05.253Z,72.43
2018-11-26T20:46:49.159Z,85.90
2018-11-26T20:51:53.646Z,75.73
2018-11-26T20:54:24.643Z,87.00
2018-11-26T20:56:57.593Z,72.53
2018-11-26T20:59:29.992Z,81.50
2018-11-26T21:02:02.549Z,73.67
2018-11-26T21:04:30.851Z,74.10
2018-11-26T21:07:02.229Z,90.63
2018-11-26T21:09:33.648Z,96.27
2018-11-26T21:12:04.284Z,81.47
2018-11-26T21:14:35.891Z,84.73
2018-11-26T21:19:49.712Z,66.97
2018-11-26T21:22:15.639Z,78.27
2018-11-26T21:24:48.470Z,72.73
2018-11-26T21:27:24.524Z,62.00
2018-11-26T21:29:54.336Z,60.23
2018-11-26T21:32:24.576Z,67.93
2018-11-26T21:34:54.090Z,59.43
2018-11-26T21:37:27.694Z,62.13
2018-11-26T21:40:02.178Z,58.67
2018-11-26T21:42:31.222Z,63.03
2018-11-26T21:44:59.722Z,59.87
2018-11-26T21:47:29.908Z,62.97
2018-11-26T21:50:00.949Z,57.43
2018-11-26T21:52:29.299Z,68.23
2018-11-26T21:54:59.054Z,59.87
2018-11-26T21:57:28.839Z,62.50
2018-11-26T21:59:58.940Z,60.60
2018-11-26T22:02:28.867Z,65.00
2018-11-26T22:04:58.007Z,61.47
2018-11-26T22:07:26.559Z,62.10
2018-11-26T22:09:55.851Z,58.17
2018-11-26T22:12:25.680Z,61.47
2018-11-26T22:14:54.784Z,65.90
2018-11-26T22:17:23.403Z,54.90
2018-11-26T22:19:52.443Z,61.10
2018-11-26T22:22:21.143Z,61.63
2018-11-26T22:24:52.438Z,57.83
2018-11-26T22:27:20.928Z,52.30
2018-11-26T22:29:50.108Z,60.63
2018-11-26T22:32:19.635Z,62.67
2018-11-26T22:34:48.645Z,69.10
2018-11-26T22:37:18.295Z,73.43
2018-11-26T22:39:47.697Z,66.37
2018-11-26T22:42:17.061Z,71.57
2018-11-26T22:44:46.563Z,67.13
2018-11-26T22:47:14.755Z,63.13
2018-11-26T22:49:43.276Z,65.07
2018-11-26T22:52:11.935Z,67.10
2018-11-26T22:54:41.033Z,54.97
2018-11-26T22:57:09.097Z,67.83
2018-11-26T22:59:38.111Z,56.53
2018-11-26T23:02:06.235Z,70.13
2018-11-26T23:04:35.905Z,61.13
2018-11-26T23:07:05.427Z,58.40
2018-11-26T23:09:34.196Z,58.03
2018-11-26T23:12:04.243Z,63.77
2018-11-26T23:14:32.808Z,58.33
2018-11-26T23:17:01.065Z,59.50
2018-11-26T23:19:30.785Z,54.10
2018-11-26T23:21:59.782Z,51.63
2018-11-26T23:24:28.056Z,54.23
2018-11-26T23:26:57.543Z,54.53
2018-11-26T23:29:26.715Z,60.30
2018-11-26T23:31:56.061Z,57.50
2018-11-26T23:34:25.484Z,61.93
2018-11-26T23:36:54.469Z,62.97
2018-11-26T23:39:22.711Z,53.00
2018-11-26T23:41:51.849Z,50.97
2018-11-26T23:44:21.454Z,54.13
2018-11-26T23:46:51.050Z,51.80
2018-11-26T23:49:20.576Z,53.93
2018-11-26T23:51:49.422Z,52.60
2018-11-26T23:54:18.522Z,57.70
2018-11-26T23:56:46.927Z,44.83
2018-11-26T23:59:15.754Z,54.60
